createdAt,value
2019-04-29T00:00:40.653Z,0.00
2019-04-29T00:01:40.640Z,0.00
2019-04-29T00:02:40.651Z,0.00
2019-04-29T00:03:40.609Z,0.00
2019-04-29T00:04:40.633Z,0.00
2019-04-29T00:05:40.622Z,0.00
2019-04-29T00:06:40.594Z,0.00
2019-04-29T00:07:40.644Z,0.00
2019-04-29T00:08:40.564Z,0.00
2019-04-29T00:09:40.547Z,0.00
2019-04-29T00:10:40.519Z,0.00
2019-04-29T00:11:40.584Z,0.00
2019-04-29T00:12:40.516Z,0.00
2019-04-29T00:13:40.541Z,0.00
2019-04-29T00:14:40.509Z,0.00
2019-04-29T00:15:40.472Z,0.00
2019-04-29T00:16:40.479Z,0.00
2019-04-29T00:17:40.512Z,0.00
2019-04-29T00:18:40.471Z,0.00
2019-04-29T00:19:40.476Z,0.00
2019-04-29T00:20:40.413Z,0.00
2019-04-29T00:21:40.431Z,0.00
2019-04-29T00:22:40.483Z,0.00
2019-04-29T00:23:40.403Z,0.00
2019-04-29T00:24:40.384Z,0.00
2019-04-29T00:25:40.423Z,0.00
2019-04-29T00:26:40.374Z,0.00
2019-04-29T00:27:40.363Z,0.00
2019-04-29T00:28:40.325Z,0.00
2019-04-29T00:29:40.372Z,0.00
2019-04-29T00:30:40.349Z,0.00
2019-04-29T00:31:40.340Z,0.00
2019-04-29T00:32:40.300Z,0.00
2019-04-29T00:33:40.282Z,0.00
2019-04-29T00:34:40.288Z,0.00
2019-04-29T00:35:40.349Z,0.00
2019-04-29T00:36:40.267Z,0.00
2019-04-29T00:37:40.242Z,0.00
2019-04-29T00:38:40.292Z,0.00
2019-04-29T00:39:40.257Z,0.00
2019-04-29T00:40:40.224Z,0.00
2019-04-29T00:41:40.239Z,0.00
2019-04-29T00:42:40.204Z,0.00
2019-04-29T00:43:40.204Z,0.00
2019-04-29T00:44:40.173Z,0.00
2019-04-29T00:45:40.162Z,0.00
2019-04-29T00:46:40.159Z,0.00
2019-04-29T00:47:40.188Z,0.00
2019-04-29T00:48:40.163Z,0.00
2019-04-29T00:49:40.145Z,0.00
2019-04-29T00:50:40.104Z,0.00
2019-04-29T00:51:40.165Z,0.00
2019-04-29T00:52:40.113Z,0.00
2019-04-29T00:53:40.095Z,0.00
2019-04-29T00:54:40.106Z,0.00
2019-04-29T00:55:40.145Z,0.00
2019-04-29T00:56:40.101Z,0.00
2019-04-29T00:57:40.012Z,0.00
2019-04-29T00:58:40.047Z,0.00
2019-04-29T00:59:40.116Z,0.00
2019-04-29T01:00:40.019Z,0.00
2019-04-29T01:01:39.985Z,0.00
2019-04-29T01:02:39.966Z,0.00
2019-04-29T01:03:41.278Z,0.00
2019-04-29T01:04:39.951Z,0.00
2019-04-29T01:05:39.941Z,0.00
2019-04-29T01:06:39.942Z,0.00
2019-04-29T01:07:39.900Z,0.00
2019-04-29T01:08:39.910Z,0.00
2019-04-29T01:09:39.900Z,0.00
2019-04-29T01:10:39.866Z,0.00
2019-04-29T01:11:39.898Z,0.00
2019-04-29T01:12:39.846Z,0.00
2019-04-29T01:13:39.890Z,0.00
2019-04-29T01:14:39.833Z,0.00
2019-04-29T01:15:39.827Z,0.00
2019-04-29T01:16:39.827Z,0.00
2019-04-29T01:17:39.823Z,0.00
2019-04-29T01:18:39.779Z,0.00
2019-04-29T01:19:39.857Z,0.00
2019-04-29T01:20:39.778Z,0.00
2019-04-29T01:21:39.745Z,0.00
2019-04-29T01:22:39.759Z,0.00
2019-04-29T01:23:39.776Z,0.00
2019-04-29T01:24:39.756Z,0.00
2019-04-29T01:25:39.756Z,0.00
2019-04-29T01:26:39.713Z,0.00
2019-04-29T01:27:39.709Z,0.00
2019-04-29T01:28:39.754Z,0.00
2019-04-29T01:29:39.674Z,0.00
2019-04-29T01:30:39.677Z,0.00
2019-04-29T01:31:39.666Z,0.00
2019-04-29T01:32:39.681Z,0.00
2019-04-29T01:33:39.654Z,0.00
2019-04-29T01:34:39.636Z,0.00
2019-04-29T01:35:39.608Z,0.00
2019-04-29T01:36:39.607Z,0.00
2019-04-29T01:37:39.620Z,0.00
2019-04-29T01:38:39.607Z,0.00
2019-04-29T01:39:39.570Z,0.00
2019-04-29T01:40:39.559Z,0.00
2019-04-29T01:41:39.550Z,0.00
2019-04-29T01:42:39.565Z,0.00
2019-04-29T01:43:39.524Z,0.00
2019-04-29T01:44:39.514Z,0.00
2019-04-29T01:45:39.514Z,0.00
2019-04-29T01:46:39.494Z,0.00
2019-04-29T01:47:39.506Z,0.00
2019-04-29T01:48:39.468Z,0.00
2019-04-29T01:49:39.482Z,0.00
2019-04-29T01:50:39.455Z,0.00
2019-04-29T01:51:39.467Z,0.00
2019-04-29T01:52:39.407Z,0.00
2019-04-29T01:53:39.427Z,0.00
2019-04-29T01:54:39.414Z,0.00
2019-04-29T01:55:39.401Z,0.00
2019-04-29T01:56:39.360Z,0.00
2019-04-29T01:57:39.355Z,0.00
2019-04-29T01:58:39.394Z,0.00
2019-04-29T01:59:39.351Z,0.00
2019-04-29T02:00:39.321Z,0.00
2019-04-29T02:01:39.354Z,0.00
2019-04-29T02:02:39.303Z,0.00
2019-04-29T02:03:39.314Z,0.00
2019-04-29T02:04:39.358Z,0.00
2019-04-29T02:05:39.296Z,0.00
2019-04-29T02:06:39.289Z,0.00
2019-04-29T02:07:39.242Z,0.00
2019-04-29T02:08:39.335Z,0.00
2019-04-29T02:09:39.278Z,0.00
2019-04-29T02:10:39.229Z,0.00
2019-04-29T02:11:39.228Z,0.00
2019-04-29T02:12:39.243Z,0.00
2019-04-29T02:13:39.266Z,0.00
2019-04-29T02:14:39.191Z,0.00
2019-04-29T02:15:39.201Z,0.00
2019-04-29T02:16:39.155Z,0.00
2019-04-29T02:17:39.160Z,0.00
2019-04-29T02:18:39.181Z,0.00
2019-04-29T02:19:39.136Z,0.00
2019-04-29T02:20:39.134Z,0.00
2019-04-29T02:21:39.106Z,0.00
2019-04-29T02:22:39.093Z,0.00
2019-04-29T02:23:39.116Z,0.00
2019-04-29T02:24:39.064Z,0.00
2019-04-29T02:25:39.103Z,0.00
2019-04-29T02:26:39.060Z,0.00
2019-04-29T02:27:39.098Z,0.00
2019-04-29T02:28:39.118Z,0.00
2019-04-29T02:29:39.051Z,0.00
2019-04-29T02:30:39.021Z,0.00
2019-04-29T02:31:39.054Z,0.00
2019-04-29T02:32:39.036Z,0.00
2019-04-29T02:33:39.039Z,0.00
2019-04-29T02:34:38.989Z,0.00
2019-04-29T02:35:38.987Z,0.00
2019-04-29T02:36:38.958Z,0.00
2019-04-29T02:37:38.965Z,0.00
2019-04-29T02:38:38.986Z,0.00
2019-04-29T02:39:38.981Z,0.00
2019-04-29T02:40:38.941Z,0.00
2019-04-29T02:41:38.947Z,0.00
2019-04-29T02:42:38.962Z,0.00
2019-04-29T02:43:38.911Z,0.00
2019-04-29T02:44:38.896Z,0.00
2019-04-29T02:45:38.848Z,0.00
2019-04-29T02:46:38.861Z,0.00
2019-04-29T02:47:38.810Z,0.00
2019-04-29T02:48:38.808Z,0.00
2019-04-29T02:49:38.878Z,0.00
2019-04-29T02:50:38.782Z,0.00
2019-04-29T02:51:38.784Z,0.00
2019-04-29T02:52:38.807Z,0.00
2019-04-29T02:53:38.765Z,0.00
2019-04-29T02:54:38.757Z,0.00
2019-04-29T02:55:38.760Z,0.00
2019-04-29T02:56:38.727Z,0.00
2019-04-29T02:57:38.748Z,0.00
2019-04-29T02:58:38.715Z,0.00
2019-04-29T02:59:38.764Z,0.00
2019-04-29T03:02:12.431Z,0.00
2019-04-29T03:03:12.430Z,0.00
2019-04-29T03:04:12.399Z,0.00
2019-04-29T03:05:12.415Z,0.00
2019-04-29T03:06:12.341Z,0.00
2019-04-29T03:07:12.336Z,0.00
2019-04-29T03:08:12.314Z,0.00
2019-04-29T03:09:12.336Z,0.00
2019-04-29T03:10:12.299Z,0.00
2019-04-29T03:11:12.291Z,0.00
2019-04-29T03:12:12.294Z,0.00
2019-04-29T03:13:12.258Z,0.00
2019-04-29T03:14:12.277Z,0.00
2019-04-29T03:15:12.251Z,0.00
2019-04-29T03:16:12.269Z,0.00
2019-04-29T03:17:12.222Z,0.00
2019-04-29T03:18:12.210Z,0.00
2019-04-29T03:19:12.235Z,0.00
2019-04-29T03:20:12.192Z,0.00
2019-04-29T03:21:12.213Z,0.00
2019-04-29T03:22:12.162Z,0.00
2019-04-29T03:23:12.158Z,0.00
2019-04-29T03:24:12.142Z,0.00
2019-04-29T03:25:12.137Z,0.00
2019-04-29T03:26:12.143Z,0.00
2019-04-29T03:27:12.116Z,0.00
2019-04-29T03:28:12.110Z,0.00
2019-04-29T03:29:12.087Z,0.00
2019-04-29T03:30:12.076Z,0.00
2019-04-29T03:31:12.077Z,0.00
2019-04-29T03:32:12.091Z,0.00
2019-04-29T03:33:12.051Z,0.00
2019-04-29T03:34:12.030Z,4.00
2019-04-29T03:35:12.031Z,4.00
2019-04-29T03:36:12.010Z,0.00
2019-04-29T03:37:12.063Z,0.00
2019-04-29T03:38:12.033Z,4.00
2019-04-29T03:39:11.985Z,4.00
2019-04-29T03:40:11.974Z,0.00
2019-04-29T03:41:11.969Z,4.00
2019-04-29T03:42:11.943Z,8.00
2019-04-29T03:43:11.972Z,4.00
2019-04-29T03:44:11.937Z,8.00
2019-04-29T03:45:11.927Z,8.00
2019-04-29T03:46:11.941Z,8.00
2019-04-29T03:47:11.918Z,8.00
2019-04-29T03:48:11.882Z,12.00
2019-04-29T03:49:11.900Z,12.00
2019-04-29T03:50:11.889Z,16.00
2019-04-29T03:51:11.870Z,16.00
2019-04-29T03:52:11.833Z,16.00
2019-04-29T03:53:11.822Z,20.00
2019-04-29T03:54:11.888Z,24.00
2019-04-29T03:55:11.818Z,24.00
2019-04-29T03:56:11.849Z,24.00
2019-04-29T03:57:11.803Z,28.00
2019-04-29T03:58:11.775Z,32.00
2019-04-29T03:59:11.782Z,36.00
2019-04-29T04:00:11.765Z,40.00
2019-04-29T04:01:11.788Z,44.00
2019-04-29T04:02:11.749Z,48.00
2019-04-29T04:03:11.731Z,52.00
2019-04-29T04:04:11.728Z,56.00
2019-04-29T04:05:11.977Z,56.00
2019-04-29T04:06:11.732Z,64.00
2019-04-29T04:07:11.681Z,68.00
2019-04-29T04:08:11.681Z,72.00
2019-04-29T04:09:11.662Z,80.00
2019-04-29T04:10:11.671Z,84.00
2019-04-29T04:11:11.663Z,92.00
2019-04-29T04:12:11.622Z,96.00
2019-04-29T04:13:11.664Z,104.00
2019-04-29T04:14:11.602Z,108.00
2019-04-29T04:15:11.570Z,116.00
2019-04-29T04:16:11.661Z,128.00
2019-04-29T04:17:11.564Z,132.00
2019-04-29T04:18:11.583Z,140.00
2019-04-29T04:19:11.624Z,148.00
2019-04-29T04:20:11.540Z,156.00
2019-04-29T04:21:11.524Z,164.00
2019-04-29T04:22:11.505Z,168.00
2019-04-29T04:23:11.543Z,180.00
2019-04-29T04:24:11.523Z,188.00
2019-04-29T04:25:11.479Z,196.00
2019-04-29T04:26:11.469Z,204.00
2019-04-29T04:27:11.447Z,216.00
2019-04-29T04:28:11.439Z,224.00
2019-04-29T04:29:11.450Z,236.00
2019-04-29T04:30:11.425Z,252.00
2019-04-29T04:31:11.450Z,260.00
2019-04-29T04:32:11.403Z,276.00
2019-04-29T04:33:11.396Z,292.00
2019-04-29T04:34:11.356Z,304.00
2019-04-29T04:35:11.405Z,320.00
2019-04-29T04:36:11.374Z,332.00
2019-04-29T04:37:11.366Z,348.00
2019-04-29T04:38:11.334Z,360.00
2019-04-29T04:39:11.327Z,368.00
2019-04-29T04:40:11.363Z,380.00
2019-04-29T04:41:11.319Z,392.00
2019-04-29T04:42:11.284Z,400.00
2019-04-29T04:43:11.314Z,412.00
2019-04-29T04:44:11.704Z,420.00
2019-04-29T04:45:11.405Z,424.00
2019-04-29T04:46:11.271Z,428.00
2019-04-29T04:47:11.267Z,436.00
2019-04-29T04:48:11.238Z,444.00
2019-04-29T04:49:11.239Z,460.00
2019-04-29T04:50:11.257Z,476.00
2019-04-29T04:51:11.181Z,512.00
2019-04-29T04:52:11.175Z,536.00
2019-04-29T04:53:11.163Z,552.00
2019-04-29T04:54:11.149Z,552.00
2019-04-29T04:55:11.148Z,564.00
2019-04-29T04:56:11.178Z,568.00
2019-04-29T04:57:11.139Z,560.00
2019-04-29T04:58:11.107Z,560.00
2019-04-29T04:59:11.109Z,560.00
2019-04-29T05:00:11.094Z,572.00
2019-04-29T05:01:11.074Z,576.00
2019-04-29T05:02:11.102Z,580.00
2019-04-29T05:03:11.083Z,584.00
2019-04-29T05:04:11.042Z,588.00
2019-04-29T05:05:11.077Z,592.00
2019-04-29T05:06:11.024Z,596.00
2019-04-29T05:07:11.014Z,604.00
2019-04-29T05:08:11.015Z,624.00
2019-04-29T05:09:10.966Z,640.00
2019-04-29T05:10:10.983Z,660.00
2019-04-29T05:11:10.975Z,680.00
2019-04-29T05:12:13.964Z,708.00
2019-04-29T05:13:10.983Z,752.00
2019-04-29T05:14:10.938Z,800.00
2019-04-29T05:15:10.928Z,844.00
2019-04-29T05:16:10.909Z,868.00
2019-04-29T05:17:10.898Z,880.00
2019-04-29T05:18:10.929Z,880.00
2019-04-29T05:19:10.888Z,876.00
2019-04-29T05:20:10.873Z,872.00
2019-04-29T05:21:10.861Z,880.00
2019-04-29T05:22:10.856Z,892.00
2019-04-29T05:23:10.870Z,912.00
2019-04-29T05:24:10.826Z,936.00
2019-04-29T05:25:10.798Z,948.00
2019-04-29T05:26:10.787Z,956.00
2019-04-29T05:27:10.794Z,960.00
2019-04-29T05:28:10.813Z,972.00
2019-04-29T05:29:10.824Z,988.00
2019-04-29T05:30:10.804Z,1004.00
2019-04-29T05:31:10.746Z,1028.00
2019-04-29T05:32:10.748Z,1056.00
2019-04-29T05:33:10.761Z,1080.00
2019-04-29T05:34:10.709Z,1112.00
2019-04-29T05:35:10.730Z,1140.00
2019-04-29T05:36:10.690Z,1164.00
2019-04-29T05:37:10.681Z,1188.00
2019-04-29T05:38:10.673Z,1204.00
2019-04-29T05:39:10.698Z,1232.00
2019-04-29T05:40:10.642Z,1256.00
2019-04-29T05:41:10.634Z,1284.00
2019-04-29T05:42:16.101Z,1320.00
2019-04-29T05:43:11.677Z,1356.00
2019-04-29T05:44:10.607Z,1388.00
2019-04-29T05:45:10.611Z,1428.00
2019-04-29T05:46:10.579Z,1464.00
2019-04-29T05:47:10.579Z,1492.00
2019-04-29T05:48:10.593Z,1520.00
2019-04-29T05:49:10.569Z,1540.00
2019-04-29T05:50:11.946Z,1552.00
2019-04-29T05:51:11.570Z,1556.00
2019-04-29T05:52:10.540Z,1548.00
2019-04-29T05:53:11.535Z,1536.00
2019-04-29T05:54:11.595Z,1528.00
2019-04-29T05:55:13.849Z,1528.00
2019-04-29T05:56:10.487Z,1540.00
2019-04-29T05:57:10.491Z,1568.00
2019-04-29T05:58:10.457Z,1620.00
2019-04-29T05:59:12.743Z,1684.00
2019-04-29T06:00:10.490Z,1748.00
2019-04-29T06:01:10.481Z,1788.00
2019-04-29T06:02:10.454Z,1832.00
2019-04-29T06:03:10.376Z,1880.00
2019-04-29T06:04:11.641Z,1892.00
2019-04-29T06:05:11.404Z,1852.00
2019-04-29T06:06:12.286Z,1820.00
2019-04-29T06:07:10.354Z,1816.00
2019-04-29T06:08:10.342Z,1808.00
2019-04-29T06:09:11.499Z,1804.00
2019-04-29T06:10:11.295Z,1788.00
2019-04-29T06:11:10.298Z,1788.00
2019-04-29T06:12:10.305Z,1812.00
2019-04-29T06:13:10.280Z,1848.00
2019-04-29T06:14:10.272Z,1844.00
2019-04-29T06:15:10.334Z,1800.00
2019-04-29T06:16:10.273Z,1764.00
2019-04-29T06:17:10.273Z,1788.00
2019-04-29T06:18:10.256Z,1824.00
2019-04-29T06:19:10.223Z,1860.00
2019-04-29T06:20:13.196Z,1872.00
2019-04-29T06:21:11.196Z,1872.00
2019-04-29T06:22:10.202Z,1876.00
2019-04-29T06:23:10.169Z,1876.00
2019-04-29T06:24:10.202Z,1908.00
2019-04-29T06:25:10.149Z,1944.00
2019-04-29T06:26:10.161Z,1988.00
2019-04-29T06:27:10.133Z,1996.00
2019-04-29T06:28:10.100Z,1984.00
2019-04-29T06:29:10.165Z,1964.00
2019-04-29T06:30:10.107Z,1960.00
2019-04-29T06:31:10.082Z,1964.00
2019-04-29T06:32:14.647Z,1988.00
2019-04-29T06:33:10.082Z,2012.00
2019-04-29T06:34:10.055Z,2004.00
2019-04-29T06:35:10.723Z,1964.00
2019-04-29T06:36:10.046Z,1916.00
2019-04-29T06:37:10.037Z,1968.00
2019-04-29T06:38:10.007Z,1984.00
2019-04-29T06:39:09.995Z,2008.00
2019-04-29T06:40:09.989Z,2012.00
2019-04-29T06:41:10.922Z,2004.00
2019-04-29T06:42:09.968Z,2000.00
2019-04-29T06:43:09.964Z,2016.00
2019-04-29T06:44:16.090Z,2008.00
2019-04-29T06:45:10.949Z,2012.00
2019-04-29T06:46:09.942Z,2016.00
2019-04-29T06:47:09.935Z,2028.00
2019-04-29T06:48:10.667Z,2052.00
2019-04-29T06:49:14.314Z,2048.00
2019-04-29T06:50:09.931Z,2040.00
2019-04-29T06:51:09.854Z,2012.00
2019-04-29T06:52:09.853Z,2000.00
2019-04-29T06:53:09.845Z,1996.00
2019-04-29T06:54:09.866Z,2072.00
2019-04-29T06:55:09.803Z,2036.00
2019-04-29T06:56:09.844Z,2084.00
2019-04-29T06:57:09.808Z,2184.00
2019-04-29T06:58:09.773Z,2160.00
2019-04-29T06:59:12.279Z,2156.00
2019-04-29T07:00:10.067Z,2200.00
2019-04-29T07:01:09.759Z,2200.00
2019-04-29T07:02:14.358Z,2220.00
2019-04-29T07:03:10.719Z,2008.00
2019-04-29T07:04:09.824Z,2112.00
2019-04-29T07:05:09.723Z,2036.00
2019-04-29T07:06:09.713Z,1952.00
2019-04-29T07:07:09.781Z,1960.00
2019-04-29T07:08:09.689Z,1968.00
2019-04-29T07:09:09.724Z,1904.00
2019-04-29T07:10:09.665Z,1880.00
2019-04-29T07:11:09.699Z,2004.00
2019-04-29T07:12:12.645Z,1952.00
2019-04-29T07:13:09.660Z,1932.00
2019-04-29T07:14:09.606Z,1976.00
2019-04-29T07:15:12.350Z,1992.00
2019-04-29T07:16:09.573Z,2016.00
2019-04-29T07:17:09.607Z,2068.00
2019-04-29T07:18:09.577Z,2124.00
2019-04-29T07:19:09.552Z,2188.00
2019-04-29T07:20:09.583Z,2292.00
2019-04-29T07:21:11.951Z,2324.00
2019-04-29T07:22:09.499Z,2472.00
2019-04-29T07:23:09.519Z,2500.00
2019-04-29T07:24:09.546Z,2632.00
2019-04-29T07:25:09.512Z,2364.00
2019-04-29T07:26:09.473Z,2320.00
2019-04-29T07:27:09.470Z,2348.00
2019-04-29T07:28:09.445Z,2488.00
2019-04-29T07:29:09.424Z,2360.00
2019-04-29T07:30:09.483Z,2464.00
2019-04-29T07:31:10.321Z,2460.00
2019-04-29T07:32:10.588Z,2424.00
2019-04-29T07:33:09.437Z,2608.00
2019-04-29T07:34:09.442Z,2424.00
2019-04-29T07:35:11.309Z,2316.00
2019-04-29T07:36:11.225Z,2192.00
2019-04-29T07:37:09.369Z,2308.00
2019-04-29T07:38:09.900Z,2244.00
2019-04-29T07:39:09.535Z,2228.00
2019-04-29T07:40:09.694Z,2160.00
2019-04-29T07:41:10.150Z,2096.00
2019-04-29T07:42:09.285Z,2144.00
2019-04-29T07:43:09.582Z,1992.00
2019-04-29T07:44:09.264Z,2068.00
2019-04-29T07:45:09.303Z,2060.00
2019-04-29T07:46:09.237Z,2080.00
2019-04-29T07:47:09.326Z,1900.00
2019-04-29T07:48:09.221Z,2084.00
2019-04-29T07:49:12.799Z,1980.00
2019-04-29T07:50:10.348Z,1972.00
2019-04-29T07:51:09.191Z,1944.00
2019-04-29T07:52:09.829Z,1940.00
2019-04-29T07:53:09.163Z,1940.00
2019-04-29T07:54:11.022Z,1928.00
2019-04-29T07:55:10.194Z,1908.00
2019-04-29T07:56:09.126Z,1892.00
2019-04-29T07:57:12.467Z,1832.00
2019-04-29T07:58:10.107Z,1884.00
2019-04-29T07:59:11.242Z,1880.00
2019-04-29T08:00:12.710Z,1884.00
2019-04-29T08:01:10.065Z,1880.00
2019-04-29T08:02:09.066Z,1880.00
2019-04-29T08:03:09.048Z,1880.00
2019-04-29T08:04:09.041Z,1912.00
2019-04-29T08:05:09.033Z,1908.00
2019-04-29T08:06:09.051Z,1904.00
2019-04-29T08:07:08.989Z,1912.00
2019-04-29T08:08:09.001Z,1956.00
2019-04-29T08:09:09.750Z,1996.00
2019-04-29T08:10:22.837Z,2016.00
2019-04-29T08:11:09.970Z,2024.00
2019-04-29T08:12:08.950Z,2036.00
2019-04-29T08:13:08.932Z,2032.00
2019-04-29T08:14:08.923Z,2028.00
2019-04-29T08:15:09.224Z,2020.00
2019-04-29T08:16:12.649Z,2036.00
2019-04-29T08:17:09.907Z,2024.00
2019-04-29T08:18:11.421Z,2048.00
2019-04-29T08:19:09.899Z,2016.00
2019-04-29T08:20:08.898Z,2000.00
2019-04-29T08:21:10.249Z,1968.00
2019-04-29T08:22:09.861Z,1992.00
2019-04-29T08:23:08.832Z,1980.00
2019-04-29T08:24:11.604Z,1956.00
2019-04-29T08:25:09.846Z,1936.00
2019-04-29T08:26:08.802Z,1972.00
2019-04-29T08:27:08.783Z,1908.00
2019-04-29T08:28:08.773Z,1932.00
2019-04-29T08:29:08.806Z,1944.00
2019-04-29T08:30:11.215Z,1968.00
2019-04-29T08:31:08.742Z,1992.00
2019-04-29T08:32:08.725Z,2060.00
2019-04-29T08:33:12.070Z,2100.00
2019-04-29T08:34:08.713Z,2152.00
2019-04-29T08:35:08.737Z,2188.00
2019-04-29T08:36:08.676Z,2212.00
2019-04-29T08:37:08.671Z,2276.00
2019-04-29T08:38:08.659Z,2036.00
2019-04-29T08:39:09.120Z,2268.00
2019-04-29T08:40:16.233Z,2236.00
2019-04-29T08:41:09.653Z,2200.00
2019-04-29T08:42:09.285Z,2248.00
2019-04-29T08:43:08.590Z,2184.00
2019-04-29T08:44:16.482Z,2260.00
2019-04-29T08:45:09.613Z,2224.00
2019-04-29T08:46:08.639Z,2272.00
2019-04-29T08:47:08.565Z,2300.00
2019-04-29T08:48:08.548Z,2252.00
2019-04-29T08:49:11.429Z,2240.00
2019-04-29T08:50:08.526Z,2080.00
2019-04-29T08:51:08.534Z,2128.00
2019-04-29T08:52:08.515Z,1988.00
2019-04-29T08:53:08.516Z,2180.00
2019-04-29T08:54:08.466Z,2080.00
2019-04-29T08:55:08.453Z,2088.00
2019-04-29T08:56:10.150Z,2452.00
2019-04-29T08:57:08.479Z,2556.00
2019-04-29T08:58:11.368Z,2452.00
2019-04-29T08:59:08.422Z,2240.00
2019-04-29T09:00:08.414Z,2544.00
2019-04-29T09:01:08.418Z,2636.00
2019-04-29T09:02:10.232Z,2500.00
2019-04-29T09:03:08.384Z,2548.00
2019-04-29T09:04:08.364Z,2636.00
2019-04-29T09:05:11.442Z,2676.00
2019-04-29T09:06:08.382Z,2452.00
2019-04-29T09:07:12.631Z,2700.00
2019-04-29T09:08:08.339Z,2660.00
2019-04-29T09:09:10.617Z,2752.00
2019-04-29T09:10:09.309Z,2816.00
2019-04-29T09:11:12.903Z,2912.00
2019-04-29T09:12:09.280Z,2968.00
2019-04-29T09:13:08.274Z,2908.00
2019-04-29T09:14:08.265Z,3020.00
2019-04-29T09:15:08.304Z,3100.00
2019-04-29T09:16:08.298Z,3108.00
2019-04-29T09:17:19.803Z,2916.00
2019-04-29T09:18:11.132Z,3044.00
2019-04-29T09:19:08.224Z,2960.00
2019-04-29T09:20:08.246Z,2996.00
2019-04-29T09:21:08.207Z,3024.00
2019-04-29T09:22:08.264Z,2924.00
2019-04-29T09:23:08.339Z,2940.00
2019-04-29T09:24:08.178Z,2896.00
2019-04-29T09:25:08.200Z,2816.00
2019-04-29T09:26:08.233Z,2816.00
2019-04-29T09:27:09.595Z,2836.00
2019-04-29T09:28:08.163Z,2764.00
2019-04-29T09:29:08.088Z,2596.00
2019-04-29T09:30:08.094Z,2460.00
2019-04-29T09:31:08.071Z,2500.00
2019-04-29T09:32:08.123Z,2572.00
2019-04-29T09:33:08.724Z,2572.00
2019-04-29T09:34:08.027Z,2680.00
2019-04-29T09:35:08.043Z,2764.00
2019-04-29T09:36:09.698Z,2916.00
2019-04-29T09:37:09.050Z,2988.00
2019-04-29T09:38:08.016Z,2992.00
2019-04-29T09:39:07.968Z,2944.00
2019-04-29T09:40:07.960Z,2848.00
2019-04-29T09:41:07.968Z,2816.00
2019-04-29T09:42:12.874Z,2816.00
2019-04-29T09:43:15.205Z,2836.00
2019-04-29T09:44:08.924Z,2832.00
2019-04-29T09:45:07.928Z,3020.00
2019-04-29T09:46:08.160Z,3180.00
2019-04-29T09:47:08.457Z,3336.00
2019-04-29T09:48:07.904Z,3440.00
2019-04-29T09:49:07.906Z,3292.00
2019-04-29T09:50:07.854Z,3200.00
2019-04-29T09:51:17.205Z,3244.00
2019-04-29T09:52:08.863Z,3144.00
2019-04-29T09:53:07.949Z,3100.00
2019-04-29T09:54:09.610Z,3072.00
2019-04-29T09:55:08.807Z,2984.00
2019-04-29T09:56:07.810Z,2924.00
2019-04-29T09:57:07.778Z,2936.00
2019-04-29T09:58:07.786Z,2916.00
2019-04-29T09:59:07.758Z,2924.00
2019-04-29T10:00:07.766Z,2928.00
2019-04-29T10:01:07.797Z,2964.00
2019-04-29T10:02:08.530Z,2964.00
2019-04-29T10:03:07.739Z,3016.00
2019-04-29T10:04:07.701Z,3076.00
2019-04-29T10:05:07.690Z,3068.00
2019-04-29T10:06:07.685Z,3044.00
2019-04-29T10:07:07.696Z,3048.00
2019-04-29T10:08:07.660Z,3016.00
2019-04-29T10:09:07.683Z,3036.00
2019-04-29T10:10:07.874Z,3136.00
2019-04-29T10:11:07.633Z,3068.00
2019-04-29T10:12:07.670Z,3192.00
2019-04-29T10:13:07.660Z,3188.00
2019-04-29T10:14:07.593Z,3088.00
2019-04-29T10:15:07.584Z,3108.00
2019-04-29T10:16:07.597Z,3140.00
2019-04-29T10:17:11.239Z,3124.00
2019-04-29T10:18:08.550Z,3120.00
2019-04-29T10:19:07.569Z,3092.00
2019-04-29T10:20:08.102Z,3044.00
2019-04-29T10:21:07.551Z,2988.00
2019-04-29T10:22:07.587Z,2936.00
2019-04-29T10:23:07.524Z,2920.00
2019-04-29T10:24:07.508Z,2924.00
2019-04-29T10:25:07.508Z,3008.00
2019-04-29T10:26:07.480Z,3040.00
2019-04-29T10:27:07.526Z,3100.00
2019-04-29T10:28:07.456Z,3136.00
2019-04-29T10:29:07.447Z,3160.00
2019-04-29T10:30:07.409Z,3184.00
2019-04-29T10:31:07.405Z,3208.00
2019-04-29T10:32:08.627Z,3180.00
2019-04-29T10:33:07.402Z,3180.00
2019-04-29T10:34:07.399Z,3184.00
2019-04-29T10:35:09.174Z,3176.00
2019-04-29T10:36:07.340Z,3248.00
2019-04-29T10:37:07.407Z,3336.00
2019-04-29T10:38:07.322Z,3360.00
2019-04-29T10:39:07.315Z,3396.00
2019-04-29T10:40:11.371Z,3464.00
2019-04-29T10:41:07.295Z,3496.00
2019-04-29T10:42:07.304Z,3464.00
2019-04-29T10:43:07.321Z,3432.00
2019-04-29T10:44:07.257Z,3392.00
2019-04-29T10:45:07.263Z,3352.00
2019-04-29T10:46:07.247Z,3312.00
2019-04-29T10:47:07.216Z,3284.00
2019-04-29T10:48:07.430Z,3220.00
2019-04-29T10:49:07.207Z,3172.00
2019-04-29T10:50:10.578Z,3108.00
2019-04-29T10:51:08.437Z,3060.00
2019-04-29T10:52:07.190Z,3068.00
2019-04-29T10:53:11.142Z,3072.00
2019-04-29T10:54:08.171Z,3072.00
2019-04-29T10:55:07.158Z,3072.00
2019-04-29T10:56:07.168Z,3080.00
2019-04-29T10:57:10.489Z,3100.00
2019-04-29T10:58:08.162Z,3112.00
2019-04-29T10:59:09.089Z,3112.00
2019-04-29T11:00:07.074Z,3096.00
2019-04-29T11:01:07.068Z,3056.00
2019-04-29T11:02:13.705Z,3008.00
2019-04-29T11:03:08.070Z,2960.00
2019-04-29T11:04:08.828Z,2924.00
2019-04-29T11:05:07.836Z,2912.00
2019-04-29T11:06:07.008Z,2900.00
2019-04-29T11:07:13.816Z,2916.00
2019-04-29T11:08:08.046Z,2904.00
2019-04-29T11:09:09.646Z,2896.00
2019-04-29T11:10:08.222Z,2892.00
2019-04-29T11:11:06.932Z,2924.00
2019-04-29T11:12:08.828Z,2976.00
2019-04-29T11:13:06.970Z,3036.00
2019-04-29T11:14:06.914Z,3096.00
2019-04-29T11:15:09.751Z,3100.00
2019-04-29T11:16:07.892Z,3140.00
2019-04-29T11:17:15.835Z,3196.00
2019-04-29T11:18:07.911Z,3260.00
2019-04-29T11:19:06.888Z,3348.00
2019-04-29T11:20:06.847Z,3380.00
2019-04-29T11:21:08.947Z,3440.00
2019-04-29T11:22:06.829Z,3536.00
2019-04-29T11:23:09.137Z,3604.00
2019-04-29T11:24:07.914Z,3624.00
2019-04-29T11:25:06.807Z,3696.00
2019-04-29T11:26:09.465Z,3664.00
2019-04-29T11:27:11.995Z,3604.00
2019-04-29T11:28:07.763Z,3576.00
2019-04-29T11:29:09.345Z,3600.00
2019-04-29T11:30:06.762Z,3572.00
2019-04-29T11:31:09.856Z,3620.00
2019-04-29T11:32:07.745Z,3704.00
2019-04-29T11:33:06.753Z,3692.00
2019-04-29T11:34:06.697Z,3520.00
2019-04-29T11:35:06.687Z,3504.00
2019-04-29T11:36:06.688Z,3528.00
2019-04-29T11:37:06.658Z,3488.00
2019-04-29T11:38:06.694Z,3396.00
2019-04-29T11:39:09.061Z,3468.00
2019-04-29T11:40:07.643Z,3516.00
2019-04-29T11:41:06.597Z,3472.00
2019-04-29T11:42:06.603Z,3488.00
2019-04-29T11:43:06.599Z,3496.00
2019-04-29T11:44:06.582Z,3520.00
2019-04-29T11:45:06.572Z,3456.00
2019-04-29T11:46:09.930Z,3336.00
2019-04-29T11:47:07.574Z,3284.00
2019-04-29T11:48:06.813Z,3264.00
2019-04-29T11:49:06.524Z,3200.00
2019-04-29T11:50:07.448Z,3248.00
2019-04-29T11:51:07.517Z,3236.00
2019-04-29T11:52:09.595Z,3160.00
2019-04-29T11:53:06.485Z,3116.00
2019-04-29T11:54:08.138Z,3136.00
2019-04-29T11:55:07.495Z,3172.00
2019-04-29T11:56:06.431Z,3232.00
2019-04-29T11:57:06.418Z,3256.00
2019-04-29T11:58:06.466Z,3340.00
2019-04-29T11:59:06.439Z,3300.00
2019-04-29T12:00:06.431Z,3320.00
2019-04-29T12:01:08.493Z,3252.00
2019-04-29T12:02:06.382Z,3120.00
2019-04-29T12:03:06.357Z,3256.00
2019-04-29T12:04:06.389Z,3220.00
2019-04-29T12:05:08.595Z,3100.00
2019-04-29T12:06:06.347Z,3120.00
2019-04-29T12:07:06.337Z,3000.00
2019-04-29T12:08:11.736Z,2956.00
2019-04-29T12:09:07.342Z,2856.00
2019-04-29T12:10:06.781Z,2788.00
2019-04-29T12:11:07.537Z,2816.00
2019-04-29T12:12:07.860Z,2808.00
2019-04-29T12:13:07.265Z,2632.00
2019-04-29T12:14:06.268Z,2584.00
2019-04-29T12:15:09.130Z,2368.00
2019-04-29T12:16:07.302Z,2404.00
2019-04-29T12:17:06.253Z,2432.00
2019-04-29T12:18:06.212Z,2380.00
2019-04-29T12:19:06.195Z,2508.00
2019-04-29T12:20:06.194Z,2496.00
2019-04-29T12:21:06.183Z,2436.00
2019-04-29T12:22:08.985Z,2252.00
2019-04-29T12:23:06.198Z,2236.00
2019-04-29T12:24:06.145Z,2476.00
2019-04-29T12:25:06.114Z,2460.00
2019-04-29T12:26:06.116Z,2524.00
2019-04-29T12:27:06.174Z,2580.00
2019-04-29T12:28:18.871Z,2756.00
2019-04-29T12:29:07.099Z,3200.00
2019-04-29T12:30:06.117Z,3068.00
2019-04-29T12:31:10.323Z,2996.00
2019-04-29T12:32:07.047Z,2932.00